This is the latest recevied weather packets stored in our database for station/object SP1JT-10. If no packets are shown the sender has not sent any weather packets the latest 10 day(s).
| Time | Temp. | Humidity | Pressure | Rain* | Wind** | Luminosity | Snow |
|---|---|---|---|---|---|---|---|
| 1777803553 | 20° C | 40% | 1013.4 hPa | - | - | - | - |
| 1777800554 | 18.33° C | 43% | 1013.8 hPa | - | - | - | - |
| 1777799953 | 17.78° C | 45% | 1014 hPa | - | - | - | - |
| 1777798154 | 17.22° C | 46% | 1014.3 hPa | - | - | - | - |
| 1777794434 | 15.56° C | 45% | 1014.8 hPa | - | - | - | - |
| 1777786753 | 10.56° C | 62% | 1015 hPa | - | - | - | - |
| 1777784353 | 8.89° C | 64% | 1015.2 hPa | - | - | - | - |
| 1777783155 | 8.89° C | 64% | 1015.2 hPa | - | - | - | - |
| 1777780753 | 8.89° C | 63% | 1015.2 hPa | - | - | - | - |
| 1777777754 | 8.89° C | 61% | 1015.4 hPa | - | - | - | - |
| 1777766353 | 10.56° C | 56% | 1016.3 hPa | - | - | - | - |
| 1777764554 | 11.11° C | 54% | 1016.4 hPa | - | - | - | - |
| 1777762754 | 11.67° C | 53% | 1016.7 hPa | - | - | - | - |
| 1777759154 | 12.22° C | 52% | 1016.9 hPa | - | - | - | - |
| 1777757354 | 13.33° C | 49% | 1017 hPa | - | - | - | - |
| 1777755315 | 13.89° C | 46% | 1017.2 hPa | - | - | - | - |
| 1777755255 | 13.89° C | 47% | 1017.2 hPa | - | - | - | - |
| 1777754052 | 15° C | 44% | 1017.3 hPa | - | - | - | - |
| 1777745355 | 18.89° C | 34% | 1016.9 hPa | - | - | - | - |
| 1777741754 | 21.67° C | 29% | 1016.6 hPa | - | - | - | - |
| 1777738755 | 23.89° C | 27% | 1016.5 hPa | - | - | - | - |
| 1777733954 | 25.56° C | 23% | 1017.3 hPa | - | - | - | - |
| 1777731555 | 26.11° C | 24% | 1017.9 hPa | - | - | - | - |
| 1777730353 | 30° C | 20% | 1017.4 hPa | - | - | - | - |
| 1777728553 | 36.67° C | 17% | 1016.8 hPa | - | - | - | - |
* Rain since midnight (hover to see other rain measurements)
** Current wind speed in m/s (hover to see current wind gust speed)